sensor_id;sensor_type;location;lat;lon;timestamp;P1;durP1;ratioP1;P2;durP2;ratioP2
19205;SDS011;59358;52.134;5.596;2023-12-22T00:00:00;16.90;;;3.40;;
19205;SDS011;59358;52.134;5.596;2023-12-22T00:02:27;19.65;;;3.45;;
19205;SDS011;59358;52.134;5.596;2023-12-22T00:04:54;21.60;;;3.55;;
19205;SDS011;59358;52.134;5.596;2023-12-22T00:07:21;21.55;;;3.05;;
19205;SDS011;59358;52.134;5.596;2023-12-22T00:09:47;16.77;;;3.25;;
19205;SDS011;59358;52.134;5.596;2023-12-22T00:12:15;20.73;;;4.72;;
19205;SDS011;59358;52.134;5.596;2023-12-22T00:14:42;21.17;;;3.55;;
19205;SDS011;59358;52.134;5.596;2023-12-22T00:17:11;20.33;;;3.95;;
19205;SDS011;59358;52.134;5.596;2023-12-22T00:19:38;12.05;;;1.95;;
19205;SDS011;59358;52.134;5.596;2023-12-22T00:22:05;12.98;;;1.90;;
19205;SDS011;59358;52.134;5.596;2023-12-22T00:24:32;11.00;;;2.55;;
19205;SDS011;59358;52.134;5.596;2023-12-22T00:26:59;11.00;;;1.70;;
19205;SDS011;59358;52.134;5.596;2023-12-22T00:29:27;13.95;;;2.17;;
19205;SDS011;59358;52.134;5.596;2023-12-22T00:31:54;12.77;;;2.33;;
19205;SDS011;59358;52.134;5.596;2023-12-22T00:34:21;6.75;;;1.67;;
19205;SDS011;59358;52.134;5.596;2023-12-22T00:36:48;10.30;;;2.35;;
19205;SDS011;59358;52.134;5.596;2023-12-22T00:39:15;9.60;;;2.13;;
19205;SDS011;59358;52.134;5.596;2023-12-22T00:41:42;14.90;;;1.75;;
19205;SDS011;59358;52.134;5.596;2023-12-22T00:44:08;16.73;;;2.15;;
19205;SDS011;59358;52.134;5.596;2023-12-22T00:46:36;11.48;;;1.92;;
19205;SDS011;59358;52.134;5.596;2023-12-22T00:49:03;15.63;;;2.28;;
19205;SDS011;59358;52.134;5.596;2023-12-22T00:51:30;10.23;;;2.47;;
19205;SDS011;59358;52.134;5.596;2023-12-22T00:53:57;14.35;;;3.25;;
19205;SDS011;59358;52.134;5.596;2023-12-22T00:56:23;13.05;;;1.90;;
19205;SDS011;59358;52.134;5.596;2023-12-22T00:58:50;13.13;;;2.30;;
19205;SDS011;59358;52.134;5.596;2023-12-22T01:01:17;17.10;;;2.05;;
19205;SDS011;59358;52.134;5.596;2023-12-22T01:03:45;15.18;;;2.20;;
19205;SDS011;59358;52.134;5.596;2023-12-22T01:06:12;13.48;;;2.40;;
19205;SDS011;59358;52.134;5.596;2023-12-22T01:08:40;10.82;;;2.00;;
19205;SDS011;59358;52.134;5.596;2023-12-22T01:11:06;17.30;;;2.63;;
19205;SDS011;59358;52.134;5.596;2023-12-22T01:13:33;12.43;;;1.83;;
19205;SDS011;59358;52.134;5.596;2023-12-22T01:16:00;10.10;;;2.03;;
19205;SDS011;59358;52.134;5.596;2023-12-22T01:18:27;17.02;;;2.28;;
19205;SDS011;59358;52.134;5.596;2023-12-22T01:20:56;11.60;;;2.20;;
19205;SDS011;59358;52.134;5.596;2023-12-22T01:23:23;14.20;;;2.33;;
19205;SDS011;59358;52.134;5.596;2023-12-22T01:25:50;8.32;;;2.10;;
19205;SDS011;59358;52.134;5.596;2023-12-22T01:28:16;10.70;;;1.83;;
19205;SDS011;59358;52.134;5.596;2023-12-22T01:30:43;9.50;;;1.88;;
19205;SDS011;59358;52.134;5.596;2023-12-22T01:33:10;10.98;;;1.83;;
19205;SDS011;59358;52.134;5.596;2023-12-22T01:35:37;16.10;;;2.13;;
19205;SDS011;59358;52.134;5.596;2023-12-22T01:38:05;14.25;;;2.17;;
19205;SDS011;59358;52.134;5.596;2023-12-22T01:40:32;15.20;;;2.60;;
19205;SDS011;59358;52.134;5.596;2023-12-22T01:42:59;15.52;;;2.40;;
19205;SDS011;59358;52.134;5.596;2023-12-22T01:45:27;13.40;;;3.30;;
19205;SDS011;59358;52.134;5.596;2023-12-22T01:47:53;8.77;;;2.45;;
19205;SDS011;59358;52.134;5.596;2023-12-22T01:50:20;14.82;;;2.33;;
19205;SDS011;59358;52.134;5.596;2023-12-22T01:52:47;13.65;;;2.55;;
19205;SDS011;59358;52.134;5.596;2023-12-22T01:55:15;10.35;;;2.17;;
19205;SDS011;59358;52.134;5.596;2023-12-22T01:57:42;13.25;;;2.50;;
19205;SDS011;59358;52.134;5.596;2023-12-22T02:00:11;16.13;;;2.70;;
19205;SDS011;59358;52.134;5.596;2023-12-22T02:02:39;23.98;;;2.22;;
19205;SDS011;59358;52.134;5.596;2023-12-22T02:05:07;17.70;;;3.17;;
19205;SDS011;59358;52.134;5.596;2023-12-22T02:07:36;19.92;;;2.50;;
19205;SDS011;59358;52.134;5.596;2023-12-22T02:10:05;17.55;;;2.53;;
19205;SDS011;59358;52.134;5.596;2023-12-22T02:12:35;11.98;;;2.30;;
19205;SDS011;59358;52.134;5.596;2023-12-22T02:15:02;16.90;;;2.40;;
19205;SDS011;59358;52.134;5.596;2023-12-22T02:17:33;15.10;;;2.33;;
19205;SDS011;59358;52.134;5.596;2023-12-22T02:20:09;13.88;;;2.53;;
19205;SDS011;59358;52.134;5.596;2023-12-22T02:22:40;14.85;;;2.88;;
19205;SDS011;59358;52.134;5.596;2023-12-22T02:25:09;21.15;;;3.05;;
19205;SDS011;59358;52.134;5.596;2023-12-22T02:27:38;11.93;;;2.40;;
19205;SDS011;59358;52.134;5.596;2023-12-22T02:30:12;14.35;;;3.30;;
19205;SDS011;59358;52.134;5.596;2023-12-22T02:32:42;23.17;;;3.55;;
19205;SDS011;59358;52.134;5.596;2023-12-22T02:35:19;21.88;;;3.70;;
19205;SDS011;59358;52.134;5.596;2023-12-22T02:37:48;23.50;;;3.15;;
19205;SDS011;59358;52.134;5.596;2023-12-22T02:40:16;19.73;;;3.30;;
19205;SDS011;59358;52.134;5.596;2023-12-22T02:42:44;28.33;;;3.72;;
19205;SDS011;59358;52.134;5.596;2023-12-22T02:45:13;24.15;;;4.28;;
19205;SDS011;59358;52.134;5.596;2023-12-22T02:47:41;13.85;;;3.00;;
19205;SDS011;59358;52.134;5.596;2023-12-22T02:50:08;15.13;;;4.00;;
19205;SDS011;59358;52.134;5.596;2023-12-22T02:52:35;19.63;;;3.75;;
19205;SDS011;59358;52.134;5.596;2023-12-22T02:55:04;22.27;;;3.60;;
19205;SDS011;59358;52.134;5.596;2023-12-22T02:57:31;19.48;;;3.92;;
19205;SDS011;59358;52.134;5.596;2023-12-22T02:59:58;25.80;;;4.50;;
19205;SDS011;59358;52.134;5.596;2023-12-22T03:02:27;24.42;;;4.35;;
19205;SDS011;59358;52.134;5.596;2023-12-22T03:04:59;9.30;;;2.00;;
19205;SDS011;59358;52.134;5.596;2023-12-22T03:07:25;5.45;;;1.40;;
19205;SDS011;59358;52.134;5.596;2023-12-22T03:09:58;12.35;;;2.28;;
19205;SDS011;59358;52.134;5.596;2023-12-22T03:12:32;12.40;;;2.25;;
19205;SDS011;59358;52.134;5.596;2023-12-22T03:14:59;12.63;;;2.63;;
19205;SDS011;59358;52.134;5.596;2023-12-22T03:17:26;7.28;;;1.95;;
19205;SDS011;59358;52.134;5.596;2023-12-22T03:19:53;9.00;;;1.73;;
19205;SDS011;59358;52.134;5.596;2023-12-22T03:22:20;10.40;;;2.10;;
19205;SDS011;59358;52.134;5.596;2023-12-22T03:24:46;7.43;;;2.38;;
19205;SDS011;59358;52.134;5.596;2023-12-22T03:27:13;14.25;;;2.22;;
19205;SDS011;59358;52.134;5.596;2023-12-22T03:29:42;9.27;;;2.78;;
19205;SDS011;59358;52.134;5.596;2023-12-22T03:32:09;8.00;;;1.63;;
19205;SDS011;59358;52.134;5.596;2023-12-22T03:34:36;10.48;;;2.17;;
19205;SDS011;59358;52.134;5.596;2023-12-22T03:37:03;16.17;;;2.15;;
19205;SDS011;59358;52.134;5.596;2023-12-22T03:39:29;13.43;;;2.20;;
19205;SDS011;59358;52.134;5.596;2023-12-22T03:41:56;8.65;;;1.63;;
19205;SDS011;59358;52.134;5.596;2023-12-22T03:44:29;12.35;;;2.92;;
19205;SDS011;59358;52.134;5.596;2023-12-22T03:46:57;11.52;;;2.70;;
19205;SDS011;59358;52.134;5.596;2023-12-22T03:49:26;14.13;;;2.42;;
19205;SDS011;59358;52.134;5.596;2023-12-22T03:51:53;15.18;;;2.20;;
19205;SDS011;59358;52.134;5.596;2023-12-22T03:54:20;20.65;;;3.47;;
19205;SDS011;59358;52.134;5.596;2023-12-22T03:56:49;14.55;;;3.83;;
19205;SDS011;59358;52.134;5.596;2023-12-22T03:59:22;12.10;;;2.63;;
19205;SDS011;59358;52.134;5.596;2023-12-22T04:01:54;9.23;;;1.70;;
19205;SDS011;59358;52.134;5.596;2023-12-22T04:04:27;10.32;;;2.10;;
19205;SDS011;59358;52.134;5.596;2023-12-22T04:06:54;17.52;;;2.75;;
19205;SDS011;59358;52.134;5.596;2023-12-22T04:09:21;12.38;;;1.85;;
19205;SDS011;59358;52.134;5.596;2023-12-22T04:11:48;14.63;;;2.08;;
19205;SDS011;59358;52.134;5.596;2023-12-22T04:14:18;9.52;;;1.90;;
19205;SDS011;59358;52.134;5.596;2023-12-22T04:16:45;9.13;;;1.88;;
19205;SDS011;59358;52.134;5.596;2023-12-22T04:19:12;15.90;;;2.92;;
19205;SDS011;59358;52.134;5.596;2023-12-22T04:21:40;14.63;;;2.95;;
19205;SDS011;59358;52.134;5.596;2023-12-22T04:24:07;12.10;;;2.45;;
19205;SDS011;59358;52.134;5.596;2023-12-22T04:26:34;15.15;;;3.42;;
19205;SDS011;59358;52.134;5.596;2023-12-22T04:29:00;21.63;;;3.80;;
19205;SDS011;59358;52.134;5.596;2023-12-22T04:31:27;21.13;;;3.28;;
19205;SDS011;59358;52.134;5.596;2023-12-22T04:33:55;24.45;;;4.70;;
19205;SDS011;59358;52.134;5.596;2023-12-22T04:36:23;29.45;;;4.57;;
19205;SDS011;59358;52.134;5.596;2023-12-22T04:38:51;16.98;;;3.50;;
19205;SDS011;59358;52.134;5.596;2023-12-22T04:41:18;16.23;;;3.17;;
19205;SDS011;59358;52.134;5.596;2023-12-22T04:43:44;20.70;;;3.80;;
19205;SDS011;59358;52.134;5.596;2023-12-22T04:46:11;22.10;;;3.67;;
19205;SDS011;59358;52.134;5.596;2023-12-22T04:48:38;18.80;;;3.95;;
19205;SDS011;59358;52.134;5.596;2023-12-22T04:51:05;22.92;;;3.10;;
19205;SDS011;59358;52.134;5.596;2023-12-22T04:53:32;15.35;;;2.95;;
19205;SDS011;59358;52.134;5.596;2023-12-22T04:56:00;26.80;;;3.95;;
19205;SDS011;59358;52.134;5.596;2023-12-22T04:58:26;27.35;;;4.53;;
19205;SDS011;59358;52.134;5.596;2023-12-22T05:00:53;19.73;;;3.35;;
19205;SDS011;59358;52.134;5.596;2023-12-22T05:03:20;14.98;;;3.05;;
19205;SDS011;59358;52.134;5.596;2023-12-22T05:05:47;21.02;;;4.85;;
19205;SDS011;59358;52.134;5.596;2023-12-22T05:08:14;19.52;;;4.00;;
19205;SDS011;59358;52.134;5.596;2023-12-22T05:10:41;36.50;;;4.55;;
19205;SDS011;59358;52.134;5.596;2023-12-22T05:13:09;24.23;;;3.72;;
19205;SDS011;59358;52.134;5.596;2023-12-22T05:15:36;31.00;;;4.78;;
19205;SDS011;59358;52.134;5.596;2023-12-22T05:18:03;16.52;;;3.15;;
19205;SDS011;59358;52.134;5.596;2023-12-22T05:20:30;20.27;;;3.70;;
19205;SDS011;59358;52.134;5.596;2023-12-22T05:22:57;29.88;;;4.03;;
19205;SDS011;59358;52.134;5.596;2023-12-22T05:25:24;19.75;;;4.72;;
19205;SDS011;59358;52.134;5.596;2023-12-22T05:27:50;24.02;;;4.28;;
19205;SDS011;59358;52.134;5.596;2023-12-22T05:30:19;19.52;;;3.50;;
19205;SDS011;59358;52.134;5.596;2023-12-22T05:32:46;23.77;;;3.63;;
19205;SDS011;59358;52.134;5.596;2023-12-22T05:35:12;33.92;;;4.30;;
19205;SDS011;59358;52.134;5.596;2023-12-22T05:37:39;23.42;;;4.82;;
19205;SDS011;59358;52.134;5.596;2023-12-22T05:40:06;22.13;;;3.95;;
19205;SDS011;59358;52.134;5.596;2023-12-22T05:42:34;14.90;;;3.60;;
19205;SDS011;59358;52.134;5.596;2023-12-22T05:45:01;27.58;;;5.88;;
19205;SDS011;59358;52.134;5.596;2023-12-22T05:47:30;22.60;;;4.85;;
19205;SDS011;59358;52.134;5.596;2023-12-22T05:49:57;29.42;;;4.35;;
19205;SDS011;59358;52.134;5.596;2023-12-22T05:52:24;34.47;;;4.63;;
19205;SDS011;59358;52.134;5.596;2023-12-22T05:54:51;28.88;;;6.13;;
19205;SDS011;59358;52.134;5.596;2023-12-22T05:57:19;26.83;;;4.55;;
19205;SDS011;59358;52.134;5.596;2023-12-22T05:59:46;28.00;;;4.45;;
19205;SDS011;59358;52.134;5.596;2023-12-22T06:02:12;26.15;;;3.90;;
19205;SDS011;59358;52.134;5.596;2023-12-22T06:04:41;27.00;;;4.45;;
19205;SDS011;59358;52.134;5.596;2023-12-22T06:07:08;17.33;;;4.40;;
19205;SDS011;59358;52.134;5.596;2023-12-22T06:09:36;19.23;;;3.53;;
19205;SDS011;59358;52.134;5.596;2023-12-22T06:12:04;20.90;;;4.57;;
19205;SDS011;59358;52.134;5.596;2023-12-22T06:14:32;28.48;;;3.83;;
19205;SDS011;59358;52.134;5.596;2023-12-22T06:17:00;18.45;;;3.05;;
19205;SDS011;59358;52.134;5.596;2023-12-22T06:19:27;16.17;;;3.50;;
19205;SDS011;59358;52.134;5.596;2023-12-22T06:21:58;15.25;;;2.65;;
19205;SDS011;59358;52.134;5.596;2023-12-22T06:24:27;17.45;;;3.10;;
19205;SDS011;59358;52.134;5.596;2023-12-22T06:26:53;13.50;;;3.25;;
19205;SDS011;59358;52.134;5.596;2023-12-22T06:29:20;17.70;;;2.97;;
19205;SDS011;59358;52.134;5.596;2023-12-22T06:31:48;16.13;;;3.67;;
19205;SDS011;59358;52.134;5.596;2023-12-22T06:34:15;15.70;;;3.25;;
19205;SDS011;59358;52.134;5.596;2023-12-22T06:36:42;16.70;;;2.58;;
19205;SDS011;59358;52.134;5.596;2023-12-22T06:39:10;15.95;;;3.53;;
19205;SDS011;59358;52.134;5.596;2023-12-22T06:41:37;20.90;;;3.40;;
19205;SDS011;59358;52.134;5.596;2023-12-22T06:44:06;20.05;;;3.85;;
19205;SDS011;59358;52.134;5.596;2023-12-22T06:46:35;13.60;;;3.03;;
19205;SDS011;59358;52.134;5.596;2023-12-22T06:49:02;19.88;;;3.58;;
19205;SDS011;59358;52.134;5.596;2023-12-22T06:51:30;20.02;;;3.60;;
19205;SDS011;59358;52.134;5.596;2023-12-22T06:54:00;27.23;;;4.18;;
19205;SDS011;59358;52.134;5.596;2023-12-22T06:56:28;21.75;;;4.80;;
19205;SDS011;59358;52.134;5.596;2023-12-22T06:58:58;18.65;;;4.22;;
19205;SDS011;59358;52.134;5.596;2023-12-22T07:01:26;20.15;;;3.67;;
19205;SDS011;59358;52.134;5.596;2023-12-22T07:03:54;17.15;;;3.55;;
19205;SDS011;59358;52.134;5.596;2023-12-22T07:06:21;18.17;;;3.50;;
19205;SDS011;59358;52.134;5.596;2023-12-22T07:11:59;28.08;;;3.53;;
19205;SDS011;59358;52.134;5.596;2023-12-22T07:14:26;31.25;;;4.30;;
19205;SDS011;59358;52.134;5.596;2023-12-22T07:16:53;19.58;;;4.32;;
19205;SDS011;59358;52.134;5.596;2023-12-22T07:19:20;27.23;;;8.20;;
19205;SDS011;59358;52.134;5.596;2023-12-22T07:21:47;24.95;;;5.15;;
19205;SDS011;59358;52.134;5.596;2023-12-22T07:24:14;27.40;;;5.35;;
19205;SDS011;59358;52.134;5.596;2023-12-22T07:26:41;24.52;;;5.18;;
19205;SDS011;59358;52.134;5.596;2023-12-22T07:29:10;25.25;;;4.97;;
19205;SDS011;59358;52.134;5.596;2023-12-22T07:31:37;24.85;;;5.68;;
19205;SDS011;59358;52.134;5.596;2023-12-22T07:34:04;20.65;;;4.22;;
19205;SDS011;59358;52.134;5.596;2023-12-22T07:36:31;22.27;;;6.40;;
19205;SDS011;59358;52.134;5.596;2023-12-22T07:38:57;28.52;;;5.35;;
19205;SDS011;59358;52.134;5.596;2023-12-22T07:41:25;31.88;;;6.07;;
19205;SDS011;59358;52.134;5.596;2023-12-22T07:43:52;32.05;;;5.35;;
19205;SDS011;59358;52.134;5.596;2023-12-22T07:46:20;29.75;;;5.68;;
19205;SDS011;59358;52.134;5.596;2023-12-22T07:48:48;27.55;;;6.75;;
19205;SDS011;59358;52.134;5.596;2023-12-22T07:51:15;29.77;;;5.38;;
19205;SDS011;59358;52.134;5.596;2023-12-22T07:53:42;33.38;;;7.47;;
19205;SDS011;59358;52.134;5.596;2023-12-22T07:56:09;26.92;;;5.97;;
19205;SDS011;59358;52.134;5.596;2023-12-22T07:58:36;25.77;;;6.28;;
19205;SDS011;59358;52.134;5.596;2023-12-22T08:01:03;26.95;;;5.32;;
19205;SDS011;59358;52.134;5.596;2023-12-22T08:03:33;20.67;;;4.63;;
19205;SDS011;59358;52.134;5.596;2023-12-22T08:05:59;24.58;;;4.80;;
19205;SDS011;59358;52.134;5.596;2023-12-22T08:08:26;24.17;;;5.18;;
19205;SDS011;59358;52.134;5.596;2023-12-22T08:10:53;19.55;;;3.55;;
19205;SDS011;59358;52.134;5.596;2023-12-22T08:13:20;26.65;;;4.72;;
19205;SDS011;59358;52.134;5.596;2023-12-22T08:15:46;25.40;;;4.75;;
19205;SDS011;59358;52.134;5.596;2023-12-22T08:18:13;22.05;;;4.15;;
19205;SDS011;59358;52.134;5.596;2023-12-22T08:20:41;24.63;;;4.70;;
19205;SDS011;59358;52.134;5.596;2023-12-22T08:23:08;29.48;;;4.85;;
19205;SDS011;59358;52.134;5.596;2023-12-22T08:25:37;28.38;;;5.15;;
19205;SDS011;59358;52.134;5.596;2023-12-22T08:28:05;22.10;;;5.38;;
19205;SDS011;59358;52.134;5.596;2023-12-22T08:30:32;40.78;;;5.95;;
19205;SDS011;59358;52.134;5.596;2023-12-22T08:32:59;40.78;;;6.07;;
19205;SDS011;59358;52.134;5.596;2023-12-22T08:35:26;25.13;;;5.60;;
19205;SDS011;59358;52.134;5.596;2023-12-22T08:37:54;33.42;;;6.93;;
19205;SDS011;59358;52.134;5.596;2023-12-22T08:40:22;34.83;;;6.22;;
19205;SDS011;59358;52.134;5.596;2023-12-22T08:42:51;35.35;;;6.60;;
19205;SDS011;59358;52.134;5.596;2023-12-22T08:45:19;37.65;;;6.18;;
19205;SDS011;59358;52.134;5.596;2023-12-22T08:47:46;26.83;;;4.97;;
19205;SDS011;59358;52.134;5.596;2023-12-22T08:50:13;30.83;;;5.97;;
19205;SDS011;59358;52.134;5.596;2023-12-22T08:52:40;34.80;;;6.50;;
19205;SDS011;59358;52.134;5.596;2023-12-22T08:55:08;26.70;;;5.75;;
19205;SDS011;59358;52.134;5.596;2023-12-22T08:57:35;30.83;;;4.13;;
19205;SDS011;59358;52.134;5.596;2023-12-22T09:00:02;27.80;;;4.40;;
19205;SDS011;59358;52.134;5.596;2023-12-22T09:02:30;22.88;;;4.97;;
19205;SDS011;59358;52.134;5.596;2023-12-22T09:04:56;21.58;;;4.65;;
19205;SDS011;59358;52.134;5.596;2023-12-22T09:07:23;20.20;;;4.68;;
19205;SDS011;59358;52.134;5.596;2023-12-22T09:09:50;26.75;;;6.07;;
19205;SDS011;59358;52.134;5.596;2023-12-22T09:12:18;22.80;;;3.88;;
19205;SDS011;59358;52.134;5.596;2023-12-22T09:14:45;22.15;;;4.50;;
19205;SDS011;59358;52.134;5.596;2023-12-22T09:17:12;19.13;;;4.85;;
19205;SDS011;59358;52.134;5.596;2023-12-22T09:19:38;19.10;;;4.10;;
19205;SDS011;59358;52.134;5.596;2023-12-22T09:22:07;23.40;;;4.88;;
19205;SDS011;59358;52.134;5.596;2023-12-22T09:24:34;34.28;;;4.57;;
19205;SDS011;59358;52.134;5.596;2023-12-22T09:27:01;20.17;;;4.55;;
19205;SDS011;59358;52.134;5.596;2023-12-22T09:29:31;27.67;;;4.97;;
19205;SDS011;59358;52.134;5.596;2023-12-22T09:31:58;20.75;;;4.07;;
19205;SDS011;59358;52.134;5.596;2023-12-22T09:34:25;18.63;;;4.28;;
19205;SDS011;59358;52.134;5.596;2023-12-22T09:36:52;16.73;;;3.50;;
19205;SDS011;59358;52.134;5.596;2023-12-22T09:39:20;13.18;;;2.83;;
19205;SDS011;59358;52.134;5.596;2023-12-22T09:41:48;7.18;;;1.98;;
19205;SDS011;59358;52.134;5.596;2023-12-22T09:44:16;10.55;;;2.17;;
19205;SDS011;59358;52.134;5.596;2023-12-22T09:46:47;8.38;;;2.35;;
19205;SDS011;59358;52.134;5.596;2023-12-22T09:49:15;2.88;;;1.30;;
19205;SDS011;59358;52.134;5.596;2023-12-22T09:51:45;5.28;;;1.30;;
19205;SDS011;59358;52.134;5.596;2023-12-22T09:54:13;8.25;;;1.63;;
19205;SDS011;59358;52.134;5.596;2023-12-22T09:56:40;6.68;;;1.60;;
19205;SDS011;59358;52.134;5.596;2023-12-22T09:59:09;4.70;;;1.90;;
19205;SDS011;59358;52.134;5.596;2023-12-22T10:01:39;8.48;;;1.42;;
19205;SDS011;59358;52.134;5.596;2023-12-22T10:04:10;8.60;;;1.60;;
19205;SDS011;59358;52.134;5.596;2023-12-22T10:06:36;6.60;;;2.05;;
19205;SDS011;59358;52.134;5.596;2023-12-22T10:09:04;8.02;;;1.80;;
19205;SDS011;59358;52.134;5.596;2023-12-22T10:11:33;13.75;;;2.78;;
19205;SDS011;59358;52.134;5.596;2023-12-22T10:14:02;6.45;;;1.95;;
19205;SDS011;59358;52.134;5.596;2023-12-22T10:16:29;12.65;;;2.35;;
19205;SDS011;59358;52.134;5.596;2023-12-22T10:18:56;7.15;;;2.63;;
19205;SDS011;59358;52.134;5.596;2023-12-22T10:21:26;12.82;;;3.17;;
19205;SDS011;59358;52.134;5.596;2023-12-22T10:23:55;12.18;;;2.92;;
19205;SDS011;59358;52.134;5.596;2023-12-22T10:26:22;11.02;;;2.38;;
19205;SDS011;59358;52.134;5.596;2023-12-22T10:28:49;10.98;;;2.53;;
19205;SDS011;59358;52.134;5.596;2023-12-22T10:31:17;13.02;;;3.45;;
19205;SDS011;59358;52.134;5.596;2023-12-22T10:33:44;19.15;;;3.47;;
19205;SDS011;59358;52.134;5.596;2023-12-22T10:36:10;15.95;;;3.33;;
19205;SDS011;59358;52.134;5.596;2023-12-22T10:38:39;9.70;;;4.35;;
19205;SDS011;59358;52.134;5.596;2023-12-22T10:41:08;17.13;;;3.88;;
19205;SDS011;59358;52.134;5.596;2023-12-22T10:43:38;11.35;;;2.30;;
19205;SDS011;59358;52.134;5.596;2023-12-22T10:46:05;9.48;;;2.30;;
19205;SDS011;59358;52.134;5.596;2023-12-22T10:48:33;10.93;;;2.92;;
19205;SDS011;59358;52.134;5.596;2023-12-22T10:51:00;9.27;;;2.30;;
19205;SDS011;59358;52.134;5.596;2023-12-22T10:53:26;9.27;;;2.55;;
19205;SDS011;59358;52.134;5.596;2023-12-22T10:55:55;12.50;;;2.30;;
19205;SDS011;59358;52.134;5.596;2023-12-22T10:58:23;10.52;;;2.63;;
19205;SDS011;59358;52.134;5.596;2023-12-22T11:00:50;8.27;;;2.15;;
19205;SDS011;59358;52.134;5.596;2023-12-22T11:03:17;6.60;;;2.53;;
19205;SDS011;59358;52.134;5.596;2023-12-22T11:05:48;14.30;;;3.08;;
19205;SDS011;59358;52.134;5.596;2023-12-22T11:08:16;16.60;;;4.82;;
19205;SDS011;59358;52.134;5.596;2023-12-22T11:10:45;14.52;;;4.43;;
19205;SDS011;59358;52.134;5.596;2023-12-22T11:13:18;10.50;;;4.00;;
19205;SDS011;59358;52.134;5.596;2023-12-22T11:15:46;11.82;;;2.65;;
19205;SDS011;59358;52.134;5.596;2023-12-22T11:18:14;14.38;;;2.80;;
19205;SDS011;59358;52.134;5.596;2023-12-22T11:20:42;18.85;;;5.68;;
19205;SDS011;59358;52.134;5.596;2023-12-22T11:23:09;21.52;;;3.05;;
19205;SDS011;59358;52.134;5.596;2023-12-22T11:25:38;14.45;;;2.42;;
19205;SDS011;59358;52.134;5.596;2023-12-22T11:28:06;12.20;;;3.45;;
19205;SDS011;59358;52.134;5.596;2023-12-22T11:30:35;18.88;;;3.42;;
19205;SDS011;59358;52.134;5.596;2023-12-22T11:33:03;11.43;;;3.63;;
19205;SDS011;59358;52.134;5.596;2023-12-22T11:35:31;14.75;;;3.08;;
19205;SDS011;59358;52.134;5.596;2023-12-22T11:37:58;12.93;;;5.28;;
19205;SDS011;59358;52.134;5.596;2023-12-22T11:40:26;16.85;;;4.60;;
19205;SDS011;59358;52.134;5.596;2023-12-22T11:42:53;12.02;;;4.25;;
19205;SDS011;59358;52.134;5.596;2023-12-22T11:45:21;12.05;;;2.85;;
19205;SDS011;59358;52.134;5.596;2023-12-22T11:47:50;18.48;;;5.00;;
19205;SDS011;59358;52.134;5.596;2023-12-22T11:50:27;13.90;;;4.35;;
19205;SDS011;59358;52.134;5.596;2023-12-22T11:52:55;16.10;;;3.85;;
19205;SDS011;59358;52.134;5.596;2023-12-22T11:58:38;13.75;;;4.10;;
19205;SDS011;59358;52.134;5.596;2023-12-22T12:01:06;14.38;;;2.80;;
19205;SDS011;59358;52.134;5.596;2023-12-22T12:03:37;9.60;;;2.25;;
19205;SDS011;59358;52.134;5.596;2023-12-22T12:06:10;22.42;;;3.42;;
19205;SDS011;59358;52.134;5.596;2023-12-22T12:08:41;13.68;;;2.85;;
19205;SDS011;59358;52.134;5.596;2023-12-22T12:11:08;18.63;;;3.08;;
19205;SDS011;59358;52.134;5.596;2023-12-22T12:13:37;23.70;;;6.47;;
19205;SDS011;59358;52.134;5.596;2023-12-22T12:16:18;13.30;;;4.05;;
19205;SDS011;59358;52.134;5.596;2023-12-22T12:18:47;10.98;;;4.15;;
19205;SDS011;59358;52.134;5.596;2023-12-22T12:21:14;15.30;;;2.38;;
19205;SDS011;59358;52.134;5.596;2023-12-22T12:23:43;16.13;;;3.45;;
19205;SDS011;59358;52.134;5.596;2023-12-22T12:26:10;8.38;;;2.55;;
19205;SDS011;59358;52.134;5.596;2023-12-22T12:28:41;9.48;;;2.63;;
19205;SDS011;59358;52.134;5.596;2023-12-22T12:31:12;10.20;;;2.60;;
19205;SDS011;59358;52.134;5.596;2023-12-22T12:33:39;12.60;;;3.00;;
19205;SDS011;59358;52.134;5.596;2023-12-22T12:36:07;8.10;;;2.40;;
19205;SDS011;59358;52.134;5.596;2023-12-22T12:38:36;13.20;;;2.38;;
19205;SDS011;59358;52.134;5.596;2023-12-22T12:41:09;19.55;;;2.72;;
19205;SDS011;59358;52.134;5.596;2023-12-22T12:43:40;13.02;;;2.47;;
19205;SDS011;59358;52.134;5.596;2023-12-22T12:46:08;9.60;;;2.55;;
19205;SDS011;59358;52.134;5.596;2023-12-22T12:48:35;11.57;;;2.85;;
19205;SDS011;59358;52.134;5.596;2023-12-22T12:51:03;6.38;;;1.77;;
19205;SDS011;59358;52.134;5.596;2023-12-22T12:53:32;14.63;;;2.00;;
19205;SDS011;59358;52.134;5.596;2023-12-22T12:56:00;6.35;;;2.00;;
19205;SDS011;59358;52.134;5.596;2023-12-22T12:58:28;15.07;;;1.92;;
19205;SDS011;59358;52.134;5.596;2023-12-22T13:01:06;9.85;;;2.13;;
19205;SDS011;59358;52.134;5.596;2023-12-22T13:06:17;8.45;;;2.00;;
19205;SDS011;59358;52.134;5.596;2023-12-22T13:08:48;13.85;;;2.85;;
19205;SDS011;59358;52.134;5.596;2023-12-22T13:11:19;14.68;;;2.85;;
19205;SDS011;59358;52.134;5.596;2023-12-22T13:13:48;15.45;;;2.30;;
19205;SDS011;59358;52.134;5.596;2023-12-22T13:16:17;14.23;;;2.65;;
19205;SDS011;59358;52.134;5.596;2023-12-22T13:18:44;10.63;;;1.95;;
19205;SDS011;59358;52.134;5.596;2023-12-22T13:21:11;10.45;;;2.83;;
19205;SDS011;59358;52.134;5.596;2023-12-22T13:23:38;13.25;;;2.15;;
19205;SDS011;59358;52.134;5.596;2023-12-22T13:26:16;15.20;;;3.65;;
19205;SDS011;59358;52.134;5.596;2023-12-22T13:28:44;20.35;;;3.20;;
19205;SDS011;59358;52.134;5.596;2023-12-22T13:31:10;11.57;;;2.92;;
19205;SDS011;59358;52.134;5.596;2023-12-22T13:33:39;12.73;;;3.28;;
19205;SDS011;59358;52.134;5.596;2023-12-22T13:36:06;11.63;;;2.80;;
19205;SDS011;59358;52.134;5.596;2023-12-22T13:38:33;17.13;;;2.47;;
19205;SDS011;59358;52.134;5.596;2023-12-22T13:41:00;8.52;;;2.42;;
19205;SDS011;59358;52.134;5.596;2023-12-22T13:43:29;15.45;;;2.63;;
19205;SDS011;59358;52.134;5.596;2023-12-22T13:45:56;12.00;;;4.53;;
19205;SDS011;59358;52.134;5.596;2023-12-22T13:48:23;12.85;;;2.75;;
19205;SDS011;59358;52.134;5.596;2023-12-22T13:50:57;8.02;;;2.88;;
19205;SDS011;59358;52.134;5.596;2023-12-22T13:53:24;16.52;;;2.65;;
19205;SDS011;59358;52.134;5.596;2023-12-22T13:55:54;10.95;;;2.15;;
19205;SDS011;59358;52.134;5.596;2023-12-22T13:58:21;11.35;;;2.53;;
19205;SDS011;59358;52.134;5.596;2023-12-22T14:00:49;12.05;;;3.85;;
19205;SDS011;59358;52.134;5.596;2023-12-22T14:03:16;8.95;;;3.00;;
19205;SDS011;59358;52.134;5.596;2023-12-22T14:05:46;13.45;;;3.42;;
19205;SDS011;59358;52.134;5.596;2023-12-22T14:08:13;13.38;;;2.28;;
19205;SDS011;59358;52.134;5.596;2023-12-22T14:10:44;14.40;;;2.58;;
19205;SDS011;59358;52.134;5.596;2023-12-22T14:13:12;8.80;;;2.35;;
19205;SDS011;59358;52.134;5.596;2023-12-22T14:15:41;11.00;;;1.70;;
19205;SDS011;59358;52.134;5.596;2023-12-22T14:18:10;10.73;;;2.80;;
19205;SDS011;59358;52.134;5.596;2023-12-22T14:20:37;14.45;;;2.47;;
19205;SDS011;59358;52.134;5.596;2023-12-22T14:23:04;14.75;;;2.88;;
19205;SDS011;59358;52.134;5.596;2023-12-22T14:25:30;17.40;;;3.47;;
19205;SDS011;59358;52.134;5.596;2023-12-22T14:27:57;21.45;;;4.22;;
19205;SDS011;59358;52.134;5.596;2023-12-22T14:30:24;14.98;;;3.60;;
19205;SDS011;59358;52.134;5.596;2023-12-22T14:32:51;18.40;;;3.17;;
19205;SDS011;59358;52.134;5.596;2023-12-22T14:35:20;17.95;;;3.50;;
19205;SDS011;59358;52.134;5.596;2023-12-22T14:37:47;12.32;;;3.60;;
19205;SDS011;59358;52.134;5.596;2023-12-22T14:40:14;27.40;;;3.47;;
19205;SDS011;59358;52.134;5.596;2023-12-22T14:42:40;20.55;;;3.97;;
19205;SDS011;59358;52.134;5.596;2023-12-22T14:45:07;13.68;;;2.45;;
19205;SDS011;59358;52.134;5.596;2023-12-22T14:47:34;13.35;;;2.65;;